Terminal Aerodrome Forecast
Issued by NWS

Current Version | Previous Version | Text Only | Print | Product List | Glossary On
Versions: 1 2 3 4 5 6 7 8 9 10 11 12 13 14 15 16 17 18 19 20 21 22 23 24 25 26
000
FTUS46 KSGX 301700
TAFSAN
TAF
KSAN 301722Z 3018/3124 VRB04KT P6SM BKN250
     FM301900 27008KT P6SM BKN250
     FM310200 VRB05KT P6SM SCT015 SCT250
     FM310400 VRB03KT P6SM OVC015
     FM311400 VRB03KT P6SM BKN022
     FM311900 22008KT P6SM SCT025=

USA.gov is the U.S. government's official web portal to all federal, state and local government web resources and services.